createdAt,value
2022-11-29T00:00:30.145Z,27.10
2022-11-29T00:02:34.559Z,28.35
2022-11-29T00:04:41.788Z,25.77
2022-11-29T00:06:48.045Z,29.95
2022-11-29T00:08:53.901Z,28.33
2022-11-29T00:10:55.681Z,29.15
2022-11-29T00:13:13.121Z,33.63
2022-11-29T00:15:15.760Z,31.70
2022-11-29T00:17:22.476Z,35.25
2022-11-29T00:19:25.778Z,27.88
2022-11-29T00:21:28.618Z,30.15
2022-11-29T00:23:30.366Z,33.70
2022-11-29T00:25:32.776Z,35.70
2022-11-29T00:27:34.905Z,35.22
2022-11-29T00:29:37.040Z,40.42
2022-11-29T00:31:39.909Z,39.95
2022-11-29T00:33:43.077Z,32.83
2022-11-29T00:35:45.876Z,31.48
2022-11-29T00:37:48.050Z,29.95
2022-11-29T00:39:50.856Z,27.67
2022-11-29T00:41:52.816Z,27.35
2022-11-29T00:43:54.897Z,25.38
2022-11-29T00:45:57.929Z,25.15
2022-11-29T00:48:01.242Z,24.00
2022-11-29T00:50:03.726Z,26.45
2022-11-29T00:52:09.197Z,23.20
2022-11-29T00:54:15.078Z,24.38
2022-11-29T00:56:17.666Z,18.98
2022-11-29T00:58:20.921Z,25.73
2022-11-29T01:00:23.597Z,24.95
2022-11-29T01:02:26.206Z,26.15
2022-11-29T01:04:28.206Z,25.23
2022-11-29T01:06:30.590Z,26.77
2022-11-29T01:08:33.583Z,25.33
2022-11-29T01:10:36.216Z,27.45
2022-11-29T01:12:41.986Z,28.73
2022-11-29T01:14:44.461Z,29.05
2022-11-29T01:16:46.756Z,23.95
2022-11-29T01:18:52.192Z,21.90
2022-11-29T01:21:00.911Z,23.40
2022-11-29T01:23:11.927Z,20.83
2022-11-29T01:25:14.547Z,24.02
2022-11-29T01:27:16.510Z,18.55
2022-11-29T01:29:19.251Z,21.20
2022-11-29T01:31:26.085Z,20.88
2022-11-29T01:33:28.162Z,24.02
2022-11-29T01:35:31.419Z,20.75
2022-11-29T01:37:34.417Z,20.17
2022-11-29T01:39:36.224Z,19.88
2022-11-29T01:41:38.608Z,20.90
2022-11-29T01:44:00.241Z,20.33
2022-11-29T01:46:02.500Z,24.88
2022-11-29T01:48:04.876Z,25.77
2022-11-29T01:50:08.451Z,25.25
2022-11-29T01:52:15.852Z,23.80
2022-11-29T01:54:19.660Z,30.25
2022-11-29T01:56:23.311Z,27.75
2022-11-29T01:58:25.301Z,25.48
2022-11-29T02:00:27.401Z,26.42
2022-11-29T02:02:35.752Z,28.08
2022-11-29T02:04:39.906Z,29.73
2022-11-29T02:06:42.822Z,25.17
2022-11-29T02:08:44.926Z,34.75
2022-11-29T02:11:00.232Z,30.23
2022-11-29T02:13:23.402Z,30.13
2022-11-29T02:15:31.358Z,29.00
2022-11-29T02:17:47.589Z,31.77
2022-11-29T02:20:11.146Z,30.02
2022-11-29T02:22:24.505Z,29.67
2022-11-29T02:24:36.610Z,35.60
2022-11-29T02:26:58.187Z,26.05
2022-11-29T02:29:26.105Z,29.45
2022-11-29T02:31:38.857Z,34.45
2022-11-29T02:34:11.731Z,33.17
2022-11-29T02:36:20.861Z,27.95
2022-11-29T02:38:42.485Z,32.60
2022-11-29T02:41:01.836Z,30.27
2022-11-29T02:43:16.952Z,26.05
2022-11-29T02:45:29.786Z,27.52
2022-11-29T02:47:51.486Z,32.65
2022-11-29T02:49:56.467Z,28.65
2022-11-29T02:52:04.365Z,30.23
2022-11-29T02:54:14.771Z,28.05
2022-11-29T02:56:33.834Z,32.17
2022-11-29T02:58:50.877Z,32.35
2022-11-29T03:01:22.011Z,28.83
2022-11-29T03:03:36.837Z,34.50
2022-11-29T03:05:59.350Z,31.05
2022-11-29T03:08:16.098Z,33.70
2022-11-29T03:10:29.142Z,31.92
2022-11-29T03:12:41.791Z,30.60
2022-11-29T03:14:57.831Z,30.13
2022-11-29T03:17:10.192Z,26.73
2022-11-29T03:19:31.228Z,31.05
2022-11-29T03:21:52.670Z,29.75
2022-11-29T03:23:59.326Z,25.75
2022-11-29T03:26:09.762Z,32.03
2022-11-29T03:28:19.139Z,27.05
2022-11-29T03:30:21.891Z,26.38
2022-11-29T03:32:34.097Z,31.42
2022-11-29T03:34:57.331Z,30.23
2022-11-29T03:37:10.592Z,30.20
2022-11-29T03:39:21.191Z,28.30
2022-11-29T03:41:40.492Z,27.90
2022-11-29T03:43:43.645Z,34.40
2022-11-29T03:46:01.531Z,33.83
2022-11-29T03:48:12.117Z,33.10
2022-11-29T03:50:23.641Z,35.75
2022-11-29T03:52:29.181Z,33.58
2022-11-29T03:54:50.770Z,31.95
2022-11-29T03:56:53.836Z,38.67
2022-11-29T03:59:07.666Z,31.98
2022-11-29T04:01:23.253Z,35.92
2022-11-29T04:03:34.216Z,30.38
2022-11-29T04:07:57.468Z,28.17
2022-11-29T04:10:19.366Z,30.17
2022-11-29T04:12:31.695Z,24.55
2022-11-29T04:14:45.911Z,29.75
2022-11-29T04:16:59.246Z,25.25
2022-11-29T04:19:12.281Z,32.13
2022-11-29T04:21:24.477Z,23.10
2022-11-29T04:23:52.910Z,25.00
2022-11-29T04:26:05.528Z,25.40
2022-11-29T04:28:31.501Z,26.00
2022-11-29T04:30:53.926Z,27.23
2022-11-29T04:33:15.703Z,19.38
2022-11-29T04:35:34.505Z,22.27
2022-11-29T04:37:46.823Z,20.58
2022-11-29T04:39:58.837Z,20.98
2022-11-29T04:42:19.270Z,21.73
2022-11-29T04:44:40.251Z,19.60
2022-11-29T04:49:00.596Z,28.35
2022-11-29T04:51:13.801Z,19.48
2022-11-29T04:53:31.003Z,23.40
2022-11-29T04:55:34.346Z,19.85
2022-11-29T04:57:48.688Z,21.00
2022-11-29T05:00:00.756Z,18.83
2022-11-29T05:02:22.339Z,19.75
2022-11-29T05:04:33.690Z,18.95
2022-11-29T05:06:55.631Z,21.67
2022-11-29T05:09:04.900Z,17.70
2022-11-29T05:11:26.994Z,18.55
2022-11-29T05:13:48.480Z,19.58
2022-11-29T05:16:10.389Z,15.40
2022-11-29T05:18:31.366Z,13.68
2022-11-29T05:22:51.231Z,16.35
2022-11-29T05:24:56.725Z,21.00
2022-11-29T05:27:18.237Z,16.52
2022-11-29T05:29:39.385Z,16.38
2022-11-29T05:31:56.654Z,19.58
2022-11-29T05:34:20.157Z,20.45
2022-11-29T05:36:38.765Z,26.70
2022-11-29T05:38:50.830Z,24.75
2022-11-29T05:41:10.370Z,26.05
2022-11-29T05:43:22.293Z,24.85
2022-11-29T05:45:34.376Z,23.38
2022-11-29T05:47:46.879Z,27.80
2022-11-29T05:49:59.706Z,23.08
2022-11-29T05:52:20.875Z,25.30
2022-11-29T05:54:42.566Z,26.52
2022-11-29T05:57:01.536Z,26.63
2022-11-29T05:59:07.980Z,26.50
2022-11-29T06:01:18.571Z,25.38
2022-11-29T06:03:36.301Z,20.52
2022-11-29T06:05:47.183Z,26.33
2022-11-29T06:10:05.197Z,22.92
2022-11-29T06:12:18.193Z,22.45
2022-11-29T06:14:44.583Z,24.83
2022-11-29T06:17:02.047Z,23.25
2022-11-29T06:19:23.471Z,21.55
2022-11-29T06:21:27.530Z,20.25
2022-11-29T06:23:49.406Z,22.05
2022-11-29T06:26:04.002Z,22.58
2022-11-29T06:28:23.097Z,23.63
2022-11-29T06:30:35.781Z,20.95
2022-11-29T06:32:44.114Z,22.90
2022-11-29T06:34:59.233Z,23.90
2022-11-29T06:37:13.830Z,19.60
2022-11-29T06:39:15.745Z,25.50
2022-11-29T06:41:21.540Z,22.60
2022-11-29T06:43:25.745Z,18.73
2022-11-29T06:45:28.226Z,25.02
2022-11-29T06:47:40.720Z,21.83
2022-11-29T06:50:01.445Z,21.88
2022-11-29T06:52:13.737Z,16.52
2022-11-29T06:54:25.105Z,23.77
2022-11-29T06:56:41.976Z,19.55
2022-11-29T06:58:56.951Z,18.63
2022-11-29T07:01:15.022Z,23.67
2022-11-29T07:03:26.605Z,17.50
2022-11-29T07:05:31.634Z,17.30
2022-11-29T07:07:35.186Z,21.98
2022-11-29T07:09:37.592Z,19.80
2022-11-29T07:11:40.115Z,28.25
2022-11-29T07:13:42.381Z,17.33
2022-11-29T07:15:53.922Z,20.42
2022-11-29T07:18:15.015Z,17.95
2022-11-29T07:20:32.053Z,19.48
2022-11-29T07:22:43.181Z,22.48
2022-11-29T07:25:00.086Z,23.73
2022-11-29T07:27:15.762Z,29.38
2022-11-29T07:29:36.321Z,20.70
2022-11-29T07:31:57.186Z,23.13
2022-11-29T07:36:18.526Z,19.63
2022-11-29T07:38:35.120Z,19.27
2022-11-29T07:40:51.241Z,20.90
2022-11-29T07:43:22.072Z,25.90
2022-11-29T07:45:29.507Z,20.60
2022-11-29T07:47:35.781Z,20.80
2022-11-29T07:49:38.007Z,19.42
2022-11-29T07:51:39.893Z,20.02
2022-11-29T07:53:44.012Z,19.67
2022-11-29T07:55:46.541Z,17.70
2022-11-29T07:57:49.868Z,17.10
2022-11-29T07:59:51.746Z,17.00
2022-11-29T08:01:53.588Z,23.05
2022-11-29T08:03:55.356Z,21.23
2022-11-29T08:05:57.078Z,18.45
2022-11-29T08:08:00.148Z,20.45
2022-11-29T08:10:02.986Z,17.00
2022-11-29T08:12:05.071Z,19.08
2022-11-29T08:14:06.980Z,14.82
2022-11-29T08:16:08.991Z,19.25
2022-11-29T08:18:10.837Z,15.68
2022-11-29T08:20:14.657Z,17.30
2022-11-29T08:22:16.401Z,14.50
2022-11-29T08:24:18.317Z,17.88
2022-11-29T08:26:24.469Z,19.15
2022-11-29T08:28:30.116Z,19.05
2022-11-29T08:30:31.937Z,22.48
2022-11-29T08:32:34.690Z,18.27
2022-11-29T08:34:36.630Z,16.40
2022-11-29T08:36:38.705Z,17.77
2022-11-29T08:38:40.699Z,15.90
2022-11-29T08:40:42.813Z,17.23
2022-11-29T08:42:44.986Z,16.45
2022-11-29T08:44:48.217Z,17.08
2022-11-29T08:47:00.111Z,17.08
2022-11-29T08:49:02.171Z,18.17
2022-11-29T08:51:05.207Z,16.20
2022-11-29T08:53:17.037Z,20.25
2022-11-29T08:55:20.826Z,14.57
2022-11-29T08:57:40.270Z,12.57
2022-11-29T08:59:45.143Z,16.67
2022-11-29T09:01:47.014Z,16.80
2022-11-29T09:03:58.127Z,19.23
2022-11-29T09:06:10.499Z,12.63
2022-11-29T09:08:14.236Z,14.68
2022-11-29T09:10:16.039Z,19.90
2022-11-29T09:12:17.821Z,15.55
2022-11-29T09:14:20.135Z,15.20
2022-11-29T09:16:25.613Z,18.42
2022-11-29T09:18:28.997Z,23.80
2022-11-29T09:20:31.363Z,18.95
2022-11-29T09:22:33.216Z,18.00
2022-11-29T09:24:34.991Z,22.63
2022-11-29T09:26:38.183Z,18.10
2022-11-29T09:28:40.108Z,22.90
2022-11-29T09:30:41.909Z,22.65
2022-11-29T09:32:43.792Z,24.77
2022-11-29T09:34:45.889Z,22.23
2022-11-29T09:36:48.356Z,27.67
2022-11-29T09:38:50.241Z,26.17
2022-11-29T09:40:55.521Z,23.80
2022-11-29T09:43:06.607Z,23.58
2022-11-29T09:45:11.086Z,27.00
2022-11-29T09:47:28.717Z,29.52
2022-11-29T09:49:39.477Z,23.88
2022-11-29T09:51:50.937Z,28.52
2022-11-29T09:54:12.144Z,26.58
2022-11-29T09:56:18.722Z,29.20
2022-11-29T09:58:26.339Z,28.75
2022-11-29T10:00:29.441Z,31.90
2022-11-29T10:02:40.251Z,27.48
2022-11-29T10:07:14.374Z,33.33
2022-11-29T10:09:19.861Z,21.83
2022-11-29T10:11:28.540Z,26.08
2022-11-29T10:13:35.003Z,24.50
2022-11-29T10:15:43.275Z,27.58
2022-11-29T10:17:52.621Z,24.02
2022-11-29T10:20:02.792Z,27.75
2022-11-29T10:22:14.235Z,25.05
2022-11-29T10:24:20.473Z,27.75
2022-11-29T10:26:25.913Z,26.90
2022-11-29T10:28:33.098Z,28.60
2022-11-29T10:30:35.560Z,29.27
2022-11-29T10:32:37.456Z,28.75
2022-11-29T10:34:40.200Z,26.55
2022-11-29T10:36:54.169Z,25.42
2022-11-29T10:39:01.916Z,24.92
2022-11-29T10:41:09.151Z,26.17
2022-11-29T10:43:10.955Z,34.53
2022-11-29T10:45:28.160Z,30.85
2022-11-29T10:47:31.090Z,32.42
2022-11-29T10:49:36.526Z,30.65
2022-11-29T10:51:39.170Z,30.42
2022-11-29T10:53:40.970Z,29.77
2022-11-29T10:55:53.321Z,30.75
2022-11-29T10:58:09.045Z,27.45
2022-11-29T11:00:12.080Z,35.72
2022-11-29T11:02:19.946Z,29.70
2022-11-29T11:04:29.323Z,29.00
2022-11-29T11:06:45.996Z,32.30
2022-11-29T11:08:53.199Z,30.20
2022-11-29T11:11:01.215Z,28.35
2022-11-29T11:13:07.245Z,33.33
2022-11-29T11:15:28.726Z,39.05
2022-11-29T11:17:34.018Z,27.88
2022-11-29T11:19:36.436Z,30.30
2022-11-29T11:21:39.556Z,29.67
2022-11-29T11:23:45.307Z,35.40
2022-11-29T11:25:50.261Z,35.58
2022-11-29T11:27:52.171Z,30.88
2022-11-29T11:29:54.050Z,29.63
2022-11-29T11:31:58.261Z,30.17
2022-11-29T11:34:19.312Z,24.50
2022-11-29T11:36:28.976Z,25.33
2022-11-29T11:38:31.476Z,31.30
2022-11-29T11:40:34.702Z,24.08
2022-11-29T11:42:41.102Z,28.27
2022-11-29T11:44:49.908Z,30.73
2022-11-29T11:46:52.587Z,26.55
2022-11-29T11:48:54.582Z,28.90
2022-11-29T11:50:59.771Z,26.45
2022-11-29T11:53:06.522Z,24.65
2022-11-29T11:55:21.903Z,25.92
2022-11-29T11:57:25.405Z,25.58
2022-11-29T11:59:28.157Z,27.85
2022-11-29T12:01:38.020Z,26.60
2022-11-29T12:03:45.856Z,29.17
2022-11-29T12:05:50.743Z,29.92
2022-11-29T12:08:07.848Z,26.08
2022-11-29T12:10:18.885Z,26.10
2022-11-29T12:12:26.236Z,21.88
2022-11-29T12:14:38.320Z,24.77
2022-11-29T12:16:41.353Z,26.48
2022-11-29T12:18:49.451Z,23.77
2022-11-29T12:21:05.117Z,24.42
2022-11-29T12:23:14.731Z,26.17
2022-11-29T12:25:30.043Z,25.00
2022-11-29T12:27:32.501Z,22.95
2022-11-29T12:29:35.425Z,29.52
2022-11-29T12:31:40.719Z,29.17
2022-11-29T12:33:50.467Z,24.63
2022-11-29T12:36:10.527Z,27.40
2022-11-29T12:38:28.771Z,30.60
2022-11-29T12:40:50.765Z,26.33
2022-11-29T12:43:06.377Z,29.75
2022-11-29T12:45:18.138Z,24.10
2022-11-29T12:47:35.755Z,24.98
2022-11-29T12:49:51.134Z,30.17
2022-11-29T12:52:01.466Z,29.75
2022-11-29T12:54:16.402Z,24.65
2022-11-29T12:56:28.796Z,22.77
2022-11-29T12:58:41.348Z,23.50
2022-11-29T13:01:15.294Z,24.48
2022-11-29T13:03:26.338Z,20.80
2022-11-29T13:05:47.146Z,20.33
2022-11-29T13:08:00.137Z,19.65
2022-11-29T13:10:18.358Z,21.92
2022-11-29T13:12:33.433Z,19.85
2022-11-29T13:14:46.298Z,24.08
2022-11-29T13:16:57.142Z,24.83
2022-11-29T13:21:10.824Z,26.80
2022-11-29T13:23:39.249Z,22.25
2022-11-29T13:25:47.356Z,22.55
2022-11-29T13:28:00.302Z,24.08
2022-11-29T13:30:02.738Z,30.88
2022-11-29T13:32:10.092Z,28.67
2022-11-29T13:34:27.797Z,24.25
2022-11-29T13:36:40.575Z,29.38
2022-11-29T13:38:46.883Z,26.10
2022-11-29T13:41:02.738Z,26.33
2022-11-29T13:43:19.816Z,24.80
2022-11-29T13:45:29.278Z,28.80
2022-11-29T13:47:31.148Z,24.30
2022-11-29T13:49:53.157Z,24.92
2022-11-29T13:52:06.567Z,25.23
2022-11-29T13:54:27.042Z,30.85
2022-11-29T13:56:36.288Z,27.55
2022-11-29T13:58:40.271Z,24.70
2022-11-29T14:00:44.109Z,25.35
2022-11-29T14:02:46.330Z,22.15
2022-11-29T14:04:48.553Z,27.17
2022-11-29T14:07:01.286Z,25.75
2022-11-29T14:09:22.518Z,25.23
2022-11-29T14:11:30.108Z,27.30
2022-11-29T14:13:38.254Z,28.25
2022-11-29T14:15:42.432Z,35.85
2022-11-29T14:17:54.987Z,32.58
2022-11-29T14:20:28.082Z,36.83
2022-11-29T14:22:30.501Z,32.92
2022-11-29T14:24:32.772Z,32.28
2022-11-29T14:26:34.831Z,38.20
2022-11-29T14:28:39.758Z,35.67
2022-11-29T14:30:43.876Z,32.05
2022-11-29T14:33:05.276Z,35.75
2022-11-29T14:35:11.519Z,31.75
2022-11-29T14:37:25.196Z,34.25
2022-11-29T14:39:34.322Z,34.72
2022-11-29T14:41:49.446Z,38.05
2022-11-29T14:44:04.081Z,33.92
2022-11-29T14:46:29.017Z,29.75
2022-11-29T14:48:33.356Z,33.92
2022-11-29T14:50:36.768Z,29.00
2022-11-29T14:52:49.900Z,30.58
2022-11-29T14:54:58.474Z,30.13
2022-11-29T14:57:30.376Z,30.30
2022-11-29T14:59:51.836Z,31.10
2022-11-29T15:01:54.088Z,29.90
2022-11-29T15:03:56.582Z,31.95
2022-11-29T15:06:11.796Z,27.13
2022-11-29T15:08:33.022Z,29.35
2022-11-29T15:10:39.387Z,26.20
2022-11-29T15:12:41.496Z,27.92
2022-11-29T15:14:54.022Z,23.33
2022-11-29T15:17:06.369Z,26.02
2022-11-29T15:19:27.099Z,24.23
2022-11-29T15:21:42.118Z,23.38
2022-11-29T15:23:44.607Z,24.05
2022-11-29T15:25:50.262Z,23.42
2022-11-29T15:27:53.777Z,21.58
2022-11-29T15:29:55.786Z,23.30
2022-11-29T15:32:01.918Z,22.58
2022-11-29T15:34:03.936Z,20.83
2022-11-29T15:36:08.564Z,22.00
2022-11-29T15:38:18.150Z,22.38
2022-11-29T15:40:39.334Z,18.60
2022-11-29T15:42:43.827Z,17.10
2022-11-29T15:44:49.044Z,17.38
2022-11-29T15:46:51.172Z,20.55
2022-11-29T15:48:53.813Z,16.77
2022-11-29T15:51:06.119Z,18.90
2022-11-29T15:53:12.987Z,21.85
2022-11-29T15:55:15.302Z,20.23
2022-11-29T15:57:25.310Z,22.15
2022-11-29T15:59:39.180Z,21.37
2022-11-29T16:01:44.799Z,22.40
2022-11-29T16:03:48.947Z,20.63
2022-11-29T16:05:57.858Z,17.48
2022-11-29T16:08:19.236Z,20.45
2022-11-29T16:10:29.255Z,18.90
2022-11-29T16:12:35.683Z,18.05
2022-11-29T16:14:50.296Z,19.33
2022-11-29T16:16:56.226Z,36.00
2022-11-29T16:19:10.824Z,22.70
2022-11-29T16:21:22.718Z,18.80
2022-11-29T16:23:35.561Z,18.48
2022-11-29T16:25:54.401Z,19.40
2022-11-29T16:27:57.078Z,21.52
2022-11-29T16:30:00.360Z,23.20
2022-11-29T16:32:22.229Z,16.85
2022-11-29T16:34:30.293Z,22.90
2022-11-29T16:36:32.208Z,22.15
2022-11-29T16:38:34.506Z,20.65
2022-11-29T16:40:36.466Z,19.80
2022-11-29T16:42:38.799Z,18.75
2022-11-29T16:44:41.905Z,20.42
2022-11-29T16:46:44.067Z,25.55
2022-11-29T16:48:46.117Z,17.48
2022-11-29T16:51:11.318Z,20.20
2022-11-29T16:53:32.152Z,20.35
2022-11-29T16:55:34.222Z,18.95
2022-11-29T16:57:39.483Z,15.82
2022-11-29T16:59:41.932Z,16.20
2022-11-29T17:01:44.951Z,15.30
2022-11-29T17:03:47.796Z,15.40
2022-11-29T17:05:51.062Z,15.73
2022-11-29T17:07:53.608Z,15.65
2022-11-29T17:09:56.998Z,16.90
2022-11-29T17:12:01.137Z,14.85
2022-11-29T17:14:03.078Z,14.85
2022-11-29T17:16:08.869Z,16.45
2022-11-29T17:18:11.716Z,19.88
2022-11-29T17:20:14.195Z,15.73
2022-11-29T17:22:16.131Z,17.90
2022-11-29T17:24:21.149Z,16.33
2022-11-29T17:26:24.254Z,19.05
2022-11-29T17:28:26.000Z,20.67
2022-11-29T17:30:30.165Z,21.65
2022-11-29T17:32:35.208Z,20.48
2022-11-29T17:34:37.112Z,21.30
2022-11-29T17:36:40.568Z,20.35
2022-11-29T17:38:44.625Z,21.10
2022-11-29T17:40:46.752Z,23.70
2022-11-29T17:42:48.832Z,25.30
2022-11-29T17:44:50.767Z,20.80
2022-11-29T17:46:52.958Z,21.05
2022-11-29T17:48:56.441Z,20.88
2022-11-29T17:51:01.049Z,23.02
2022-11-29T17:53:03.566Z,24.83
2022-11-29T17:55:07.052Z,22.13
2022-11-29T17:57:09.133Z,23.98
2022-11-29T17:59:11.234Z,23.27
2022-11-29T18:01:17.165Z,23.65
2022-11-29T18:03:18.825Z,23.50
2022-11-29T18:05:21.452Z,20.17
2022-11-29T18:07:23.677Z,25.52
2022-11-29T18:09:26.169Z,23.90
2022-11-29T18:11:31.158Z,22.92
2022-11-29T18:13:33.327Z,24.92
2022-11-29T18:15:36.681Z,21.35
2022-11-29T18:17:39.447Z,22.08
2022-11-29T18:19:42.582Z,24.08
2022-11-29T18:21:45.016Z,24.40
2022-11-29T18:23:46.915Z,21.63
2022-11-29T18:26:02.427Z,25.42
2022-11-29T18:28:04.652Z,26.77
2022-11-29T18:30:08.011Z,19.95
2022-11-29T18:32:09.917Z,22.80
2022-11-29T18:34:13.616Z,23.13
2022-11-29T18:36:19.632Z,24.83
2022-11-29T18:38:21.714Z,26.10
2022-11-29T18:40:23.621Z,25.48
2022-11-29T18:42:25.478Z,25.60
2022-11-29T18:44:29.680Z,33.80
2022-11-29T18:46:33.157Z,27.42
2022-11-29T18:48:35.972Z,24.67
2022-11-29T18:50:38.100Z,25.98
2022-11-29T18:52:40.901Z,24.35
2022-11-29T18:54:42.999Z,31.63
2022-11-29T18:56:45.937Z,26.40
2022-11-29T18:58:58.015Z,27.13
2022-11-29T19:01:11.693Z,27.05
2022-11-29T19:03:13.523Z,27.50
2022-11-29T19:05:15.496Z,26.83
2022-11-29T19:07:17.369Z,33.30
2022-11-29T19:09:21.735Z,31.33
2022-11-29T19:11:27.792Z,27.50
2022-11-29T19:13:29.601Z,29.35
2022-11-29T19:15:31.996Z,29.38
2022-11-29T19:17:37.607Z,27.55
2022-11-29T19:19:42.141Z,31.58
2022-11-29T19:21:43.988Z,32.97
2022-11-29T19:23:52.382Z,29.42
2022-11-29T19:25:54.227Z,30.67
2022-11-29T19:27:56.017Z,29.55
2022-11-29T19:29:57.977Z,28.98
2022-11-29T19:31:59.867Z,27.40
2022-11-29T19:34:02.150Z,29.52
2022-11-29T19:36:10.677Z,30.02
2022-11-29T19:38:12.596Z,33.05
2022-11-29T19:40:14.551Z,29.55
2022-11-29T19:42:16.516Z,29.52
2022-11-29T19:44:18.336Z,37.33
2022-11-29T19:46:23.193Z,30.23
2022-11-29T19:48:25.127Z,32.30
2022-11-29T19:50:27.022Z,34.22
2022-11-29T19:52:28.883Z,39.78
2022-11-29T19:54:30.657Z,34.55
2022-11-29T19:56:33.102Z,38.78
2022-11-29T19:58:35.050Z,34.70
2022-11-29T20:00:36.877Z,39.35
2022-11-29T20:02:38.772Z,35.50
2022-11-29T20:04:40.956Z,33.17
2022-11-29T20:06:43.585Z,33.65
2022-11-29T20:08:46.161Z,37.80
2022-11-29T20:10:47.947Z,40.42
2022-11-29T20:12:49.815Z,35.03
2022-11-29T20:14:51.657Z,39.67
2022-11-29T20:16:53.532Z,41.72
2022-11-29T20:18:58.531Z,38.38
2022-11-29T20:21:04.551Z,36.70
2022-11-29T20:23:06.626Z,38.17
2022-11-29T20:25:08.823Z,42.72
2022-11-29T20:27:12.606Z,42.38
2022-11-29T20:29:21.565Z,38.00
2022-11-29T20:31:23.721Z,43.50
2022-11-29T20:33:27.879Z,44.05
2022-11-29T20:35:29.961Z,43.15
2022-11-29T20:37:53.575Z,44.45
2022-11-29T20:40:02.515Z,40.20
2022-11-29T20:42:22.292Z,42.20
2022-11-29T20:44:44.996Z,39.45
2022-11-29T20:46:47.009Z,40.45
2022-11-29T20:48:50.047Z,43.15
2022-11-29T20:50:58.432Z,41.92
2022-11-29T20:53:18.616Z,37.83
2022-11-29T20:55:20.817Z,39.78
2022-11-29T20:57:22.520Z,41.63
2022-11-29T20:59:24.175Z,48.50
2022-11-29T21:01:25.869Z,47.05
2022-11-29T21:03:28.933Z,39.40
2022-11-29T21:05:31.968Z,45.42
2022-11-29T21:07:33.853Z,44.00
2022-11-29T21:09:35.631Z,46.30
2022-11-29T21:11:37.713Z,39.72
2022-11-29T21:13:39.775Z,40.10
2022-11-29T21:15:42.124Z,44.83
2022-11-29T21:17:44.711Z,37.80
2022-11-29T21:19:46.702Z,44.35
2022-11-29T21:22:31.279Z,40.22
2022-11-29T21:25:23.876Z,43.75
2022-11-29T21:27:56.417Z,38.22
2022-11-29T21:30:30.343Z,38.53
2022-11-29T21:32:58.509Z,41.03
2022-11-29T21:35:20.605Z,41.72
2022-11-29T21:37:53.978Z,42.20
2022-11-29T21:40:26.588Z,42.15
2022-11-29T21:42:57.609Z,38.72
2022-11-29T21:48:01.811Z,43.50
2022-11-29T21:50:34.404Z,42.42
2022-11-29T21:53:05.480Z,38.80
2022-11-29T21:57:45.542Z,45.50
2022-11-29T22:02:28.576Z,40.95
2022-11-29T22:04:51.697Z,45.45
2022-11-29T22:07:08.043Z,44.67
2022-11-29T22:09:11.453Z,42.35
2022-11-29T22:11:15.826Z,41.35
2022-11-29T22:13:17.576Z,40.58
2022-11-29T22:15:24.466Z,43.03
2022-11-29T22:17:26.927Z,37.40
2022-11-29T22:19:36.761Z,40.20
2022-11-29T22:21:40.682Z,44.45
2022-11-29T22:23:42.533Z,47.78
2022-11-29T22:25:44.381Z,40.25
2022-11-29T22:27:48.722Z,47.20
2022-11-29T22:29:50.512Z,49.60
2022-11-29T22:31:55.001Z,45.00
2022-11-29T22:33:57.362Z,44.65
2022-11-29T22:36:04.183Z,45.65
2022-11-29T22:38:05.911Z,42.85
2022-11-29T22:40:08.356Z,39.85
2022-11-29T22:42:10.242Z,44.38
2022-11-29T22:44:12.116Z,43.08
2022-11-29T22:46:16.821Z,43.38
2022-11-29T22:48:19.177Z,43.22
2022-11-29T22:50:21.022Z,47.72
2022-11-29T22:52:22.802Z,45.05
2022-11-29T22:54:24.610Z,48.78
2022-11-29T22:56:29.351Z,48.00
2022-11-29T22:58:31.376Z,47.17
2022-11-29T23:00:34.896Z,46.47
2022-11-29T23:02:36.795Z,41.28
2022-11-29T23:04:38.576Z,45.28
2022-11-29T23:06:45.313Z,44.88
2022-11-29T23:08:48.800Z,44.90
2022-11-29T23:10:57.179Z,51.30
2022-11-29T23:12:59.160Z,41.78
2022-11-29T23:15:02.384Z,43.33
2022-11-29T23:17:04.465Z,48.80
2022-11-29T23:19:06.998Z,42.33
2022-11-29T23:21:11.230Z,40.45
2022-11-29T23:23:13.447Z,45.20
2022-11-29T23:25:15.920Z,48.28
2022-11-29T23:27:17.974Z,36.10
2022-11-29T23:29:20.542Z,45.65
2022-11-29T23:31:23.441Z,41.65
2022-11-29T23:33:26.520Z,47.03
2022-11-29T23:35:30.326Z,43.15
2022-11-29T23:37:32.701Z,43.92
2022-11-29T23:39:34.411Z,48.03
2022-11-29T23:41:37.229Z,40.38
2022-11-29T23:43:40.750Z,41.47
2022-11-29T23:45:43.544Z,44.75
2022-11-29T23:47:45.500Z,40.65
2022-11-29T23:49:47.538Z,46.25
2022-11-29T23:51:49.367Z,44.28
2022-11-29T23:53:52.773Z,44.03
2022-11-29T23:56:06.073Z,40.55
2022-11-29T23:58:09.168Z,40.00
